Terminal Aerodrome Forecast
Issued by NWS

Home | Current Version | Previous Version | Text Only | Print | Product List | Glossary Off
Versions: 1 2 3 4 5 6 7 8 9 10 11 12 13 14

000
FTUS43 KTOP 051716 AAA
TAFFOE
TAF AMD
KFOE 051716Z 0517/0612 18014G22KT P6SM VCTS SCT035 BKN040CB
      TEMPO 0517/0519 VRB15G40KT
     FM060100 18012KT P6SM SCT200=

USA.gov is the U.S. government's official web portal to all federal, state and local government web resources and services.